Lambs Grove, Massachusetts
Current Conditions -  °F | °C
As of 8:54 PM on Saturday 25 Oct 2014 (Local Time) from KORH Reporting Station
Scattered Clouds Scattered Clouds  
Wind Chill: 45°   Ceiling: Unl
Heat Index: 49°   Visibility: 10mi
Dew Point: 42°   Wind: 9mph
Humidity: 77%   Direction: 230°SW
Pressure: 29.57"   Gusts: NA
Location:  42.2477°N, 71.9927°W
Report Text: KORH 260054Z AUTO 23008KT 10SM SCT090 09/06 A2957 RMK AO2 SLP016 LAST AUGMENTED OBS T00940056
Loading
Personal Weather Stations






























Interactive Weather Map
Tropical Storm Tracking
New forecast layout! Learn more

10-Day Weather Forecast

Advertisements
Track Severe Weather on mobile